sensor_id;sensor_type;location;lat;lon;timestamp;temperature;humidity
25410;DHT22;13339;50.840;4.346;2022-10-16T00:01:06;17.00;99.90
25410;DHT22;13339;50.840;4.346;2022-10-16T00:03:32;17.00;99.90
25410;DHT22;13339;50.840;4.346;2022-10-16T00:06:00;17.00;99.90
25410;DHT22;13339;50.840;4.346;2022-10-16T00:08:26;17.00;99.90
25410;DHT22;13339;50.840;4.346;2022-10-16T00:10:52;17.00;99.90
25410;DHT22;13339;50.840;4.346;2022-10-16T00:13:17;17.00;99.90
25410;DHT22;13339;50.840;4.346;2022-10-16T00:15:45;17.00;99.90
25410;DHT22;13339;50.840;4.346;2022-10-16T00:18:12;16.80;99.90
25410;DHT22;13339;50.840;4.346;2022-10-16T00:20:37;16.90;99.90
25410;DHT22;13339;50.840;4.346;2022-10-16T00:23:04;16.90;99.90
25410;DHT22;13339;50.840;4.346;2022-10-16T00:25:31;16.80;99.90
25410;DHT22;13339;50.840;4.346;2022-10-16T00:27:59;16.70;99.90
25410;DHT22;13339;50.840;4.346;2022-10-16T00:30:24;16.60;99.90
25410;DHT22;13339;50.840;4.346;2022-10-16T00:32:52;16.70;99.90
25410;DHT22;13339;50.840;4.346;2022-10-16T00:35:17;16.60;99.90
25410;DHT22;13339;50.840;4.346;2022-10-16T00:37:43;16.70;99.90
25410;DHT22;13339;50.840;4.346;2022-10-16T00:40:09;16.70;99.90
25410;DHT22;13339;50.840;4.346;2022-10-16T00:42:35;16.60;99.90
25410;DHT22;13339;50.840;4.346;2022-10-16T00:45:01;16.70;99.90
25410;DHT22;13339;50.840;4.346;2022-10-16T00:47:53;16.70;99.90
25410;DHT22;13339;50.840;4.346;2022-10-16T00:50:32;16.70;99.90
25410;DHT22;13339;50.840;4.346;2022-10-16T00:52:59;16.60;99.90
25410;DHT22;13339;50.840;4.346;2022-10-16T00:55:26;16.60;99.90
25410;DHT22;13339;50.840;4.346;2022-10-16T00:57:54;16.50;99.90
25410;DHT22;13339;50.840;4.346;2022-10-16T01:00:22;16.50;99.90
25410;DHT22;13339;50.840;4.346;2022-10-16T01:02:59;16.60;99.90
25410;DHT22;13339;50.840;4.346;2022-10-16T01:05:41;16.60;99.90
25410;DHT22;13339;50.840;4.346;2022-10-16T01:08:37;16.40;99.90
25410;DHT22;13339;50.840;4.346;2022-10-16T01:11:34;16.50;99.90
25410;DHT22;13339;50.840;4.346;2022-10-16T01:14:14;16.50;99.90
25410;DHT22;13339;50.840;4.346;2022-10-16T01:17:11;16.40;99.90
25410;DHT22;13339;50.840;4.346;2022-10-16T01:20:29;16.50;99.90
25410;DHT22;13339;50.840;4.346;2022-10-16T01:28:26;16.50;99.90
25410;DHT22;13339;50.840;4.346;2022-10-16T01:30:57;16.40;99.90
25410;DHT22;13339;50.840;4.346;2022-10-16T01:33:30;16.40;99.90
25410;DHT22;13339;50.840;4.346;2022-10-16T01:36:03;16.40;99.90
25410;DHT22;13339;50.840;4.346;2022-10-16T01:38:33;16.30;99.90
25410;DHT22;13339;50.840;4.346;2022-10-16T01:44:10;16.40;99.90
25410;DHT22;13339;50.840;4.346;2022-10-16T01:46:39;16.40;99.90
25410;DHT22;13339;50.840;4.346;2022-10-16T01:49:06;16.50;99.90
25410;DHT22;13339;50.840;4.346;2022-10-16T01:51:34;16.50;99.90
25410;DHT22;13339;50.840;4.346;2022-10-16T01:54:01;16.30;99.90
25410;DHT22;13339;50.840;4.346;2022-10-16T01:56:27;16.30;99.90
25410;DHT22;13339;50.840;4.346;2022-10-16T01:59:01;16.30;99.90
25410;DHT22;13339;50.840;4.346;2022-10-16T02:01:31;16.30;99.90
25410;DHT22;13339;50.840;4.346;2022-10-16T02:04:03;16.30;99.90
25410;DHT22;13339;50.840;4.346;2022-10-16T02:06:29;16.40;99.90
25410;DHT22;13339;50.840;4.346;2022-10-16T02:08:55;16.40;99.90
25410;DHT22;13339;50.840;4.346;2022-10-16T02:11:20;16.40;99.90
25410;DHT22;13339;50.840;4.346;2022-10-16T02:13:57;16.40;99.90
25410;DHT22;13339;50.840;4.346;2022-10-16T02:16:39;16.40;99.90
25410;DHT22;13339;50.840;4.346;2022-10-16T02:19:06;16.20;99.90
25410;DHT22;13339;50.840;4.346;2022-10-16T02:21:43;16.30;99.90
25410;DHT22;13339;50.840;4.346;2022-10-16T02:26:56;16.30;99.90
25410;DHT22;13339;50.840;4.346;2022-10-16T02:29:25;16.40;99.90
25410;DHT22;13339;50.840;4.346;2022-10-16T02:31:59;16.30;99.90
25410;DHT22;13339;50.840;4.346;2022-10-16T02:34:27;16.30;99.90
25410;DHT22;13339;50.840;4.346;2022-10-16T02:36:54;16.30;99.90
25410;DHT22;13339;50.840;4.346;2022-10-16T02:39:20;16.30;99.90
25410;DHT22;13339;50.840;4.346;2022-10-16T02:41:47;16.30;99.90
25410;DHT22;13339;50.840;4.346;2022-10-16T02:44:12;16.30;99.90
25410;DHT22;13339;50.840;4.346;2022-10-16T02:46:38;16.30;99.90
25410;DHT22;13339;50.840;4.346;2022-10-16T02:49:04;16.20;99.90
25410;DHT22;13339;50.840;4.346;2022-10-16T02:51:29;16.20;99.90
25410;DHT22;13339;50.840;4.346;2022-10-16T02:53:55;16.20;99.90
25410;DHT22;13339;50.840;4.346;2022-10-16T02:56:20;16.20;99.90
25410;DHT22;13339;50.840;4.346;2022-10-16T02:58:46;16.30;99.90
25410;DHT22;13339;50.840;4.346;2022-10-16T03:01:12;16.30;99.90
25410;DHT22;13339;50.840;4.346;2022-10-16T03:03:38;16.30;99.90
25410;DHT22;13339;50.840;4.346;2022-10-16T03:06:04;16.40;99.90
25410;DHT22;13339;50.840;4.346;2022-10-16T03:08:30;16.30;99.90
25410;DHT22;13339;50.840;4.346;2022-10-16T03:10:55;16.20;99.90
25410;DHT22;13339;50.840;4.346;2022-10-16T03:13:21;16.30;99.90
25410;DHT22;13339;50.840;4.346;2022-10-16T03:15:47;16.30;99.90
25410;DHT22;13339;50.840;4.346;2022-10-16T03:18:12;16.40;99.90
25410;DHT22;13339;50.840;4.346;2022-10-16T03:20:38;16.30;99.90
25410;DHT22;13339;50.840;4.346;2022-10-16T03:23:04;16.40;99.90
25410;DHT22;13339;50.840;4.346;2022-10-16T03:25:29;16.40;99.90
25410;DHT22;13339;50.840;4.346;2022-10-16T03:27:55;16.30;99.90
25410;DHT22;13339;50.840;4.346;2022-10-16T03:30:21;16.30;99.90
25410;DHT22;13339;50.840;4.346;2022-10-16T03:32:46;16.30;99.90
25410;DHT22;13339;50.840;4.346;2022-10-16T03:35:12;16.30;99.90
25410;DHT22;13339;50.840;4.346;2022-10-16T03:37:38;16.30;99.90
25410;DHT22;13339;50.840;4.346;2022-10-16T03:40:04;16.30;99.90
25410;DHT22;13339;50.840;4.346;2022-10-16T03:42:30;16.20;99.90
25410;DHT22;13339;50.840;4.346;2022-10-16T03:44:55;16.30;99.90
25410;DHT22;13339;50.840;4.346;2022-10-16T03:47:21;16.20;99.90
25410;DHT22;13339;50.840;4.346;2022-10-16T03:49:49;16.10;99.90
25410;DHT22;13339;50.840;4.346;2022-10-16T03:52:15;16.20;99.90
25410;DHT22;13339;50.840;4.346;2022-10-16T03:54:40;16.20;99.90
25410;DHT22;13339;50.840;4.346;2022-10-16T03:57:06;16.30;99.90
25410;DHT22;13339;50.840;4.346;2022-10-16T03:59:31;16.30;99.90
25410;DHT22;13339;50.840;4.346;2022-10-16T04:01:57;16.30;99.90
25410;DHT22;13339;50.840;4.346;2022-10-16T04:04:23;16.20;99.90
25410;DHT22;13339;50.840;4.346;2022-10-16T04:06:49;16.30;99.90
25410;DHT22;13339;50.840;4.346;2022-10-16T04:09:15;16.30;99.90
25410;DHT22;13339;50.840;4.346;2022-10-16T04:11:40;16.30;99.90
25410;DHT22;13339;50.840;4.346;2022-10-16T04:14:06;16.20;99.90
25410;DHT22;13339;50.840;4.346;2022-10-16T04:16:32;16.20;99.90
25410;DHT22;13339;50.840;4.346;2022-10-16T04:18:57;16.10;99.90
25410;DHT22;13339;50.840;4.346;2022-10-16T04:21:23;16.20;99.90
25410;DHT22;13339;50.840;4.346;2022-10-16T04:23:48;16.10;99.90
25410;DHT22;13339;50.840;4.346;2022-10-16T04:26:14;16.20;99.90
25410;DHT22;13339;50.840;4.346;2022-10-16T04:28:40;16.20;99.90
25410;DHT22;13339;50.840;4.346;2022-10-16T04:31:06;16.30;99.90
25410;DHT22;13339;50.840;4.346;2022-10-16T04:33:32;16.30;99.90
25410;DHT22;13339;50.840;4.346;2022-10-16T04:36:00;16.30;99.90
25410;DHT22;13339;50.840;4.346;2022-10-16T04:38:26;16.30;99.90
25410;DHT22;13339;50.840;4.346;2022-10-16T04:40:52;16.30;99.90
25410;DHT22;13339;50.840;4.346;2022-10-16T04:43:18;16.30;99.90
25410;DHT22;13339;50.840;4.346;2022-10-16T04:45:44;16.20;99.90
25410;DHT22;13339;50.840;4.346;2022-10-16T04:48:09;16.20;99.90
25410;DHT22;13339;50.840;4.346;2022-10-16T04:50:35;16.10;99.90
25410;DHT22;13339;50.840;4.346;2022-10-16T04:53:00;16.10;99.90
25410;DHT22;13339;50.840;4.346;2022-10-16T04:55:26;16.10;99.90
25410;DHT22;13339;50.840;4.346;2022-10-16T04:57:52;16.10;99.90
25410;DHT22;13339;50.840;4.346;2022-10-16T05:00:17;16.00;99.90
25410;DHT22;13339;50.840;4.346;2022-10-16T05:02:43;16.20;99.90
25410;DHT22;13339;50.840;4.346;2022-10-16T05:05:08;16.10;99.90
25410;DHT22;13339;50.840;4.346;2022-10-16T05:07:34;16.00;99.90
25410;DHT22;13339;50.840;4.346;2022-10-16T05:10:00;16.00;99.90
25410;DHT22;13339;50.840;4.346;2022-10-16T05:12:25;16.00;99.90
25410;DHT22;13339;50.840;4.346;2022-10-16T05:14:51;16.00;99.90
25410;DHT22;13339;50.840;4.346;2022-10-16T05:17:16;16.10;99.90
25410;DHT22;13339;50.840;4.346;2022-10-16T05:19:42;16.00;99.90
25410;DHT22;13339;50.840;4.346;2022-10-16T05:22:08;16.00;99.90
25410;DHT22;13339;50.840;4.346;2022-10-16T05:24:33;15.90;99.90
25410;DHT22;13339;50.840;4.346;2022-10-16T05:26:59;16.00;99.90
25410;DHT22;13339;50.840;4.346;2022-10-16T05:29:24;16.00;99.90
25410;DHT22;13339;50.840;4.346;2022-10-16T05:31:51;16.00;99.90
25410;DHT22;13339;50.840;4.346;2022-10-16T05:34:18;16.00;99.90
25410;DHT22;13339;50.840;4.346;2022-10-16T05:36:43;16.00;99.90
25410;DHT22;13339;50.840;4.346;2022-10-16T05:39:10;15.90;99.90
25410;DHT22;13339;50.840;4.346;2022-10-16T05:41:36;15.90;99.90
25410;DHT22;13339;50.840;4.346;2022-10-16T05:44:04;16.00;99.90
25410;DHT22;13339;50.840;4.346;2022-10-16T05:46:31;16.00;99.90
25410;DHT22;13339;50.840;4.346;2022-10-16T05:48:57;15.90;99.90
25410;DHT22;13339;50.840;4.346;2022-10-16T05:51:22;15.80;99.90
25410;DHT22;13339;50.840;4.346;2022-10-16T05:53:48;15.80;99.90
25410;DHT22;13339;50.840;4.346;2022-10-16T05:56:13;15.80;99.90
25410;DHT22;13339;50.840;4.346;2022-10-16T05:58:39;15.80;99.90
25410;DHT22;13339;50.840;4.346;2022-10-16T06:01:14;15.80;99.90
25410;DHT22;13339;50.840;4.346;2022-10-16T06:03:40;15.80;99.90
25410;DHT22;13339;50.840;4.346;2022-10-16T06:08:35;15.80;99.90
25410;DHT22;13339;50.840;4.346;2022-10-16T06:11:02;15.90;99.90
25410;DHT22;13339;50.840;4.346;2022-10-16T06:13:28;15.90;99.90
25410;DHT22;13339;50.840;4.346;2022-10-16T06:15:58;15.90;99.90
25410;DHT22;13339;50.840;4.346;2022-10-16T06:18:24;15.90;99.90
25410;DHT22;13339;50.840;4.346;2022-10-16T06:20:50;15.90;99.90
25410;DHT22;13339;50.840;4.346;2022-10-16T06:23:15;15.90;99.90
25410;DHT22;13339;50.840;4.346;2022-10-16T06:25:41;15.90;99.90
25410;DHT22;13339;50.840;4.346;2022-10-16T06:28:06;16.00;99.90
25410;DHT22;13339;50.840;4.346;2022-10-16T06:30:32;15.90;99.90
25410;DHT22;13339;50.840;4.346;2022-10-16T06:32:57;15.90;99.90
25410;DHT22;13339;50.840;4.346;2022-10-16T06:35:23;15.90;99.90
25410;DHT22;13339;50.840;4.346;2022-10-16T06:37:49;16.00;99.90
25410;DHT22;13339;50.840;4.346;2022-10-16T06:40:15;15.90;99.90
25410;DHT22;13339;50.840;4.346;2022-10-16T06:42:41;15.90;99.90
25410;DHT22;13339;50.840;4.346;2022-10-16T06:45:07;15.90;99.90
25410;DHT22;13339;50.840;4.346;2022-10-16T06:47:32;16.00;99.90
25410;DHT22;13339;50.840;4.346;2022-10-16T06:49:58;16.00;99.90
25410;DHT22;13339;50.840;4.346;2022-10-16T06:52:24;16.10;99.90
25410;DHT22;13339;50.840;4.346;2022-10-16T06:54:49;16.20;99.90
25410;DHT22;13339;50.840;4.346;2022-10-16T06:57:15;16.20;99.90
25410;DHT22;13339;50.840;4.346;2022-10-16T06:59:41;16.30;99.90
25410;DHT22;13339;50.840;4.346;2022-10-16T07:02:07;16.40;99.90
25410;DHT22;13339;50.840;4.346;2022-10-16T07:04:33;16.40;99.90
25410;DHT22;13339;50.840;4.346;2022-10-16T07:07:00;16.50;99.90
25410;DHT22;13339;50.840;4.346;2022-10-16T07:09:26;16.40;99.90
25410;DHT22;13339;50.840;4.346;2022-10-16T07:11:51;16.50;99.90
25410;DHT22;13339;50.840;4.346;2022-10-16T07:14:19;16.50;99.90
25410;DHT22;13339;50.840;4.346;2022-10-16T07:16:45;16.50;99.90
25410;DHT22;13339;50.840;4.346;2022-10-16T07:19:10;16.50;99.90
25410;DHT22;13339;50.840;4.346;2022-10-16T07:21:38;16.50;99.90
25410;DHT22;13339;50.840;4.346;2022-10-16T07:24:12;16.50;99.90
25410;DHT22;13339;50.840;4.346;2022-10-16T07:26:38;16.60;99.90
25410;DHT22;13339;50.840;4.346;2022-10-16T07:29:06;16.70;99.90
25410;DHT22;13339;50.840;4.346;2022-10-16T07:31:32;16.60;99.90
25410;DHT22;13339;50.840;4.346;2022-10-16T07:33:59;16.60;99.90
25410;DHT22;13339;50.840;4.346;2022-10-16T07:36:25;16.60;99.90
25410;DHT22;13339;50.840;4.346;2022-10-16T07:38:51;16.70;99.90
25410;DHT22;13339;50.840;4.346;2022-10-16T07:41:18;16.90;99.90
25410;DHT22;13339;50.840;4.346;2022-10-16T07:43:52;17.10;99.90
25410;DHT22;13339;50.840;4.346;2022-10-16T07:46:19;17.20;99.90
25410;DHT22;13339;50.840;4.346;2022-10-16T07:48:45;17.40;99.90
25410;DHT22;13339;50.840;4.346;2022-10-16T07:51:13;17.50;99.90
25410;DHT22;13339;50.840;4.346;2022-10-16T07:53:39;17.60;99.90
25410;DHT22;13339;50.840;4.346;2022-10-16T07:56:06;17.50;99.90
25410;DHT22;13339;50.840;4.346;2022-10-16T07:58:33;17.50;99.90
25410;DHT22;13339;50.840;4.346;2022-10-16T08:01:06;17.50;99.90
25410;DHT22;13339;50.840;4.346;2022-10-16T08:03:32;17.50;99.90
25410;DHT22;13339;50.840;4.346;2022-10-16T08:05:58;17.30;99.90
25410;DHT22;13339;50.840;4.346;2022-10-16T08:08:24;17.30;99.90
25410;DHT22;13339;50.840;4.346;2022-10-16T08:10:50;17.40;99.90
25410;DHT22;13339;50.840;4.346;2022-10-16T08:13:16;17.40;99.90
25410;DHT22;13339;50.840;4.346;2022-10-16T08:15:42;17.40;99.90
25410;DHT22;13339;50.840;4.346;2022-10-16T08:18:09;17.40;99.90
25410;DHT22;13339;50.840;4.346;2022-10-16T08:20:35;17.30;99.90
25410;DHT22;13339;50.840;4.346;2022-10-16T08:23:01;17.10;99.90
25410;DHT22;13339;50.840;4.346;2022-10-16T08:25:27;17.10;99.90
25410;DHT22;13339;50.840;4.346;2022-10-16T08:27:53;17.10;99.90
25410;DHT22;13339;50.840;4.346;2022-10-16T08:30:20;17.20;99.90
25410;DHT22;13339;50.840;4.346;2022-10-16T08:32:46;17.30;99.90
25410;DHT22;13339;50.840;4.346;2022-10-16T08:35:13;17.30;99.90
25410;DHT22;13339;50.840;4.346;2022-10-16T08:37:39;17.40;99.90
25410;DHT22;13339;50.840;4.346;2022-10-16T08:40:06;17.40;99.90
25410;DHT22;13339;50.840;4.346;2022-10-16T08:50:38;17.40;99.90
25410;DHT22;13339;50.840;4.346;2022-10-16T08:53:05;17.50;99.90
25410;DHT22;13339;50.840;4.346;2022-10-16T08:55:47;17.60;99.90
25410;DHT22;13339;50.840;4.346;2022-10-16T08:58:17;17.60;99.90
25410;DHT22;13339;50.840;4.346;2022-10-16T09:00:53;17.70;99.90
25410;DHT22;13339;50.840;4.346;2022-10-16T09:12:19;18.00;99.90
25410;DHT22;13339;50.840;4.346;2022-10-16T09:14:58;18.10;99.90
25410;DHT22;13339;50.840;4.346;2022-10-16T09:23:21;18.30;99.90
25410;DHT22;13339;50.840;4.346;2022-10-16T09:25:49;18.50;99.90
25410;DHT22;13339;50.840;4.346;2022-10-16T09:28:16;18.60;99.90
25410;DHT22;13339;50.840;4.346;2022-10-16T09:30:42;18.60;99.90
25410;DHT22;13339;50.840;4.346;2022-10-16T09:33:09;18.70;99.90
25410;DHT22;13339;50.840;4.346;2022-10-16T09:35:40;18.70;99.90
25410;DHT22;13339;50.840;4.346;2022-10-16T09:38:07;18.80;99.90
25410;DHT22;13339;50.840;4.346;2022-10-16T09:40:35;18.80;99.90
25410;DHT22;13339;50.840;4.346;2022-10-16T09:43:07;19.00;99.90
25410;DHT22;13339;50.840;4.346;2022-10-16T09:45:37;19.00;99.90
25410;DHT22;13339;50.840;4.346;2022-10-16T09:48:11;19.20;99.90
25410;DHT22;13339;50.840;4.346;2022-10-16T09:50:38;19.20;99.90
25410;DHT22;13339;50.840;4.346;2022-10-16T09:53:12;19.40;99.90
25410;DHT22;13339;50.840;4.346;2022-10-16T09:55:51;19.60;99.90
25410;DHT22;13339;50.840;4.346;2022-10-16T09:58:17;19.50;99.90
25410;DHT22;13339;50.840;4.346;2022-10-16T10:00:49;19.60;99.90
25410;DHT22;13339;50.840;4.346;2022-10-16T10:05:54;19.80;99.90
25410;DHT22;13339;50.840;4.346;2022-10-16T10:08:20;19.80;99.90
25410;DHT22;13339;50.840;4.346;2022-10-16T10:10:48;19.90;99.90
25410;DHT22;13339;50.840;4.346;2022-10-16T10:13:24;20.00;99.90
25410;DHT22;13339;50.840;4.346;2022-10-16T10:15:50;20.10;99.90
25410;DHT22;13339;50.840;4.346;2022-10-16T10:18:18;20.10;99.90
25410;DHT22;13339;50.840;4.346;2022-10-16T10:21:00;20.10;99.90
25410;DHT22;13339;50.840;4.346;2022-10-16T10:23:27;20.20;99.90
25410;DHT22;13339;50.840;4.346;2022-10-16T10:28:46;20.40;99.90
25410;DHT22;13339;50.840;4.346;2022-10-16T10:31:16;20.40;99.90
25410;DHT22;13339;50.840;4.346;2022-10-16T10:33:52;20.40;99.90
25410;DHT22;13339;50.840;4.346;2022-10-16T10:39:00;20.10;99.90
25410;DHT22;13339;50.840;4.346;2022-10-16T10:44:42;20.00;99.90
25410;DHT22;13339;50.840;4.346;2022-10-16T10:50:41;20.40;99.90
25410;DHT22;13339;50.840;4.346;2022-10-16T10:58:53;20.70;99.90
25410;DHT22;13339;50.840;4.346;2022-10-16T11:04:34;20.60;99.90
25410;DHT22;13339;50.840;4.346;2022-10-16T11:07:11;20.80;99.90
25410;DHT22;13339;50.840;4.346;2022-10-16T11:10:03;21.00;99.90
25410;DHT22;13339;50.840;4.346;2022-10-16T11:12:33;21.10;99.90
25410;DHT22;13339;50.840;4.346;2022-10-16T11:15:14;21.20;99.90
25410;DHT22;13339;50.840;4.346;2022-10-16T11:17:47;21.30;99.90
25410;DHT22;13339;50.840;4.346;2022-10-16T11:20:23;21.40;99.90
25410;DHT22;13339;50.840;4.346;2022-10-16T11:22:56;21.50;99.90
25410;DHT22;13339;50.840;4.346;2022-10-16T11:25:27;21.50;99.90
25410;DHT22;13339;50.840;4.346;2022-10-16T11:28:10;21.50;99.90
25410;DHT22;13339;50.840;4.346;2022-10-16T11:34:13;21.60;99.90
25410;DHT22;13339;50.840;4.346;2022-10-16T11:36:51;21.70;99.90
25410;DHT22;13339;50.840;4.346;2022-10-16T11:39:21;21.80;99.90
25410;DHT22;13339;50.840;4.346;2022-10-16T11:49:55;22.10;99.90
25410;DHT22;13339;50.840;4.346;2022-10-16T11:52:28;22.10;99.90
25410;DHT22;13339;50.840;4.346;2022-10-16T11:55:15;22.00;99.90
25410;DHT22;13339;50.840;4.346;2022-10-16T11:57:48;21.90;99.90
25410;DHT22;13339;50.840;4.346;2022-10-16T12:00:34;21.90;99.90
25410;DHT22;13339;50.840;4.346;2022-10-16T12:03:08;21.70;99.90
25410;DHT22;13339;50.840;4.346;2022-10-16T12:08:33;21.80;99.90
25410;DHT22;13339;50.840;4.346;2022-10-16T12:11:08;21.70;99.90
25410;DHT22;13339;50.840;4.346;2022-10-16T12:13:39;21.60;99.90
25410;DHT22;13339;50.840;4.346;2022-10-16T12:18:41;21.60;99.90
25410;DHT22;13339;50.840;4.346;2022-10-16T12:21:08;21.70;99.90
25410;DHT22;13339;50.840;4.346;2022-10-16T12:23:38;21.80;99.90
25410;DHT22;13339;50.840;4.346;2022-10-16T12:26:04;21.80;99.90
25410;DHT22;13339;50.840;4.346;2022-10-16T12:28:31;21.90;99.90
25410;DHT22;13339;50.840;4.346;2022-10-16T12:31:06;21.90;99.90
25410;DHT22;13339;50.840;4.346;2022-10-16T12:33:41;21.90;99.90
25410;DHT22;13339;50.840;4.346;2022-10-16T12:36:27;21.90;99.90
25410;DHT22;13339;50.840;4.346;2022-10-16T12:38:54;21.80;99.90
25410;DHT22;13339;50.840;4.346;2022-10-16T12:41:32;21.90;99.90
25410;DHT22;13339;50.840;4.346;2022-10-16T12:43:59;21.90;99.90
25410;DHT22;13339;50.840;4.346;2022-10-16T12:49:22;21.90;99.90
25410;DHT22;13339;50.840;4.346;2022-10-16T12:51:49;21.90;99.90
25410;DHT22;13339;50.840;4.346;2022-10-16T12:54:22;22.00;99.90
25410;DHT22;13339;50.840;4.346;2022-10-16T12:59:18;22.10;99.90
25410;DHT22;13339;50.840;4.346;2022-10-16T13:04:42;22.00;99.90
25410;DHT22;13339;50.840;4.346;2022-10-16T13:10:32;22.10;99.90
25410;DHT22;13339;50.840;4.346;2022-10-16T13:21:45;22.00;99.90
25410;DHT22;13339;50.840;4.346;2022-10-16T13:27:35;21.80;99.90
25410;DHT22;13339;50.840;4.346;2022-10-16T13:32:47;21.70;99.90
25410;DHT22;13339;50.840;4.346;2022-10-16T13:35:26;21.80;99.90
25410;DHT22;13339;50.840;4.346;2022-10-16T13:38:13;21.90;99.90
25410;DHT22;13339;50.840;4.346;2022-10-16T13:41:14;22.00;99.90
25410;DHT22;13339;50.840;4.346;2022-10-16T13:43:41;22.10;99.90
25410;DHT22;13339;50.840;4.346;2022-10-16T13:46:16;22.10;99.90
25410;DHT22;13339;50.840;4.346;2022-10-16T13:48:43;21.90;99.90
25410;DHT22;13339;50.840;4.346;2022-10-16T13:51:17;21.70;99.90
25410;DHT22;13339;50.840;4.346;2022-10-16T13:53:44;21.60;99.90
25410;DHT22;13339;50.840;4.346;2022-10-16T13:56:15;21.70;99.90
25410;DHT22;13339;50.840;4.346;2022-10-16T13:58:41;21.80;99.90
25410;DHT22;13339;50.840;4.346;2022-10-16T14:01:29;21.90;99.90
25410;DHT22;13339;50.840;4.346;2022-10-16T14:04:04;21.90;99.90
25410;DHT22;13339;50.840;4.346;2022-10-16T14:06:31;21.80;99.90
25410;DHT22;13339;50.840;4.346;2022-10-16T14:09:27;21.90;99.90
25410;DHT22;13339;50.840;4.346;2022-10-16T14:12:00;21.80;99.90
25410;DHT22;13339;50.840;4.346;2022-10-16T14:14:34;21.70;99.90
25410;DHT22;13339;50.840;4.346;2022-10-16T14:17:02;21.80;99.90
25410;DHT22;13339;50.840;4.346;2022-10-16T14:19:29;21.70;99.90
25410;DHT22;13339;50.840;4.346;2022-10-16T14:21:56;21.60;99.90
25410;DHT22;13339;50.840;4.346;2022-10-16T14:24:33;21.70;99.90
25410;DHT22;13339;50.840;4.346;2022-10-16T14:27:00;21.70;99.90
25410;DHT22;13339;50.840;4.346;2022-10-16T14:29:27;21.70;99.90
25410;DHT22;13339;50.840;4.346;2022-10-16T14:32:01;21.80;99.90
25410;DHT22;13339;50.840;4.346;2022-10-16T14:37:00;21.60;99.90
25410;DHT22;13339;50.840;4.346;2022-10-16T14:39:29;21.60;99.90
25410;DHT22;13339;50.840;4.346;2022-10-16T14:41:57;21.60;99.90
25410;DHT22;13339;50.840;4.346;2022-10-16T14:44:28;21.70;99.90
25410;DHT22;13339;50.840;4.346;2022-10-16T14:46:54;21.70;99.90
25410;DHT22;13339;50.840;4.346;2022-10-16T14:49:20;21.60;99.90
25410;DHT22;13339;50.840;4.346;2022-10-16T14:51:47;21.50;99.90
25410;DHT22;13339;50.840;4.346;2022-10-16T14:54:15;21.40;99.90
25410;DHT22;13339;50.840;4.346;2022-10-16T14:56:53;21.30;99.90
25410;DHT22;13339;50.840;4.346;2022-10-16T14:59:30;21.20;99.90
25410;DHT22;13339;50.840;4.346;2022-10-16T15:01:57;21.20;99.90
25410;DHT22;13339;50.840;4.346;2022-10-16T15:04:23;21.30;99.90
25410;DHT22;13339;50.840;4.346;2022-10-16T15:06:49;21.30;99.90
25410;DHT22;13339;50.840;4.346;2022-10-16T15:09:14;21.00;99.90
25410;DHT22;13339;50.840;4.346;2022-10-16T15:11:41;21.10;99.90
25410;DHT22;13339;50.840;4.346;2022-10-16T15:14:10;21.20;99.90
25410;DHT22;13339;50.840;4.346;2022-10-16T15:16:37;21.20;99.90
25410;DHT22;13339;50.840;4.346;2022-10-16T15:19:02;21.10;99.90
25410;DHT22;13339;50.840;4.346;2022-10-16T15:21:30;21.10;99.90
25410;DHT22;13339;50.840;4.346;2022-10-16T15:23:58;21.00;99.90
25410;DHT22;13339;50.840;4.346;2022-10-16T15:26:25;21.00;99.90
25410;DHT22;13339;50.840;4.346;2022-10-16T15:28:51;21.00;99.90
25410;DHT22;13339;50.840;4.346;2022-10-16T15:31:17;21.00;99.90
25410;DHT22;13339;50.840;4.346;2022-10-16T15:33:43;20.90;99.90
25410;DHT22;13339;50.840;4.346;2022-10-16T15:36:09;21.00;99.90
25410;DHT22;13339;50.840;4.346;2022-10-16T15:38:34;21.10;99.90
25410;DHT22;13339;50.840;4.346;2022-10-16T15:41:00;21.20;99.90
25410;DHT22;13339;50.840;4.346;2022-10-16T15:43:26;21.30;99.90
25410;DHT22;13339;50.840;4.346;2022-10-16T15:46:05;21.20;99.90
25410;DHT22;13339;50.840;4.346;2022-10-16T15:48:32;21.20;99.90
25410;DHT22;13339;50.840;4.346;2022-10-16T15:50:59;21.20;99.90
25410;DHT22;13339;50.840;4.346;2022-10-16T15:53:25;21.20;99.90
25410;DHT22;13339;50.840;4.346;2022-10-16T15:55:50;21.20;99.90
25410;DHT22;13339;50.840;4.346;2022-10-16T15:58:16;21.10;99.90
25410;DHT22;13339;50.840;4.346;2022-10-16T16:00:42;21.00;99.90
25410;DHT22;13339;50.840;4.346;2022-10-16T16:03:07;21.00;99.90
25410;DHT22;13339;50.840;4.346;2022-10-16T16:05:36;20.90;99.90
25410;DHT22;13339;50.840;4.346;2022-10-16T16:08:02;20.80;99.90
25410;DHT22;13339;50.840;4.346;2022-10-16T16:10:28;20.80;99.90
25410;DHT22;13339;50.840;4.346;2022-10-16T16:12:53;20.80;99.90
25410;DHT22;13339;50.840;4.346;2022-10-16T16:15:20;20.80;99.90
25410;DHT22;13339;50.840;4.346;2022-10-16T16:17:47;20.80;99.90
25410;DHT22;13339;50.840;4.346;2022-10-16T16:20:13;20.80;99.90
25410;DHT22;13339;50.840;4.346;2022-10-16T16:22:39;20.80;99.90
25410;DHT22;13339;50.840;4.346;2022-10-16T16:25:05;20.80;99.90
25410;DHT22;13339;50.840;4.346;2022-10-16T16:27:31;20.80;99.90
25410;DHT22;13339;50.840;4.346;2022-10-16T16:29:59;20.80;99.90
25410;DHT22;13339;50.840;4.346;2022-10-16T16:32:25;20.70;99.90
25410;DHT22;13339;50.840;4.346;2022-10-16T16:34:51;20.80;99.90
25410;DHT22;13339;50.840;4.346;2022-10-16T16:37:16;20.60;99.90
25410;DHT22;13339;50.840;4.346;2022-10-16T16:39:42;20.60;99.90
25410;DHT22;13339;50.840;4.346;2022-10-16T16:42:08;20.70;99.90
25410;DHT22;13339;50.840;4.346;2022-10-16T16:44:35;20.70;99.90
25410;DHT22;13339;50.840;4.346;2022-10-16T16:47:02;20.60;99.90
25410;DHT22;13339;50.840;4.346;2022-10-16T16:49:28;20.60;99.90
25410;DHT22;13339;50.840;4.346;2022-10-16T16:51:53;20.70;99.90
25410;DHT22;13339;50.840;4.346;2022-10-16T16:54:19;20.50;99.90
25410;DHT22;13339;50.840;4.346;2022-10-16T16:56:45;20.60;99.90
25410;DHT22;13339;50.840;4.346;2022-10-16T16:59:13;20.60;99.90
25410;DHT22;13339;50.840;4.346;2022-10-16T17:01:39;20.60;99.90
25410;DHT22;13339;50.840;4.346;2022-10-16T17:04:05;20.60;99.90
25410;DHT22;13339;50.840;4.346;2022-10-16T17:06:31;20.60;99.90
25410;DHT22;13339;50.840;4.346;2022-10-16T17:08:58;20.50;99.90
25410;DHT22;13339;50.840;4.346;2022-10-16T17:11:25;20.50;99.90
25410;DHT22;13339;50.840;4.346;2022-10-16T17:13:52;20.50;99.90
25410;DHT22;13339;50.840;4.346;2022-10-16T17:16:20;20.50;99.90
25410;DHT22;13339;50.840;4.346;2022-10-16T17:18:46;20.50;99.90
25410;DHT22;13339;50.840;4.346;2022-10-16T17:21:11;20.60;99.90
25410;DHT22;13339;50.840;4.346;2022-10-16T17:23:38;20.60;99.90
25410;DHT22;13339;50.840;4.346;2022-10-16T17:26:10;20.60;99.90